Etusivu
METAR-TAF:

METAR-TAF

Lentoasemat :

Marshfield Municipal Airport

Marshfield, Wisconsin, Yhdysvallat

Leveyspiiri: 44-38-17N, Pituuspiiri: 090-11-15W, korkeus merenpinnasta: 389 m

Tämänhetkinen sää

Tämä raportti tehtiin 9 minuuttia sitten, kello 09.54 UTC
Tuuli 5 kn luoteesta
Lämpötila 6°C
Kosteus 81%
Ilmanpaine 1016 hPa
Näkyvyys: 16.1 km
Pilvistä 3200 ft:n korkeudessa

METAR: KMFI 170954Z AUTO 31005KT 10SM OVC032 06/03 A2999 RMK AO2 SLP165 T00560033

Aika: 05:03 (10:03 UTC)


TAF: puuttuu

Säähavainnot ja -ennusteet yli 4000 lentoasemalta (METAR- ja TAF-raportit).

Käytössä olevat sääasemat on merkitty karttaan keltaisilla ja punaisilla pisteillä.

Aseta hiiri pisteen päälle nähdäksesi sääaseman nimen.

Klikkaa sitten nähdäksesi säähavainnot ja -ennusteet.

Kartan vaihtaminen: klikkaa mustalla rastilla varustettuja vihreitä pisteitä, niin voit zoomata sisään; viivalla varustettua vihreää pistettä, niin voit zoomata ulos tai vihreitä nuolia, niin pääset viereisille kartoille.


METAR-TAF: